createdAt,value
2023-11-04T00:00:00.959Z,20.65
2023-11-04T00:02:30.059Z,20.64
2023-11-04T00:04:58.249Z,20.64
2023-11-04T00:07:26.513Z,20.64
2023-11-04T00:09:57.084Z,20.64
2023-11-04T00:12:26.586Z,20.63
2023-11-04T00:14:54.764Z,20.63
2023-11-04T00:17:22.919Z,20.63
2023-11-04T00:19:51.053Z,20.63
2023-11-04T00:22:19.251Z,20.62
2023-11-04T00:24:50.904Z,20.62
2023-11-04T00:27:19.368Z,20.61
2023-11-04T00:29:48.556Z,20.61
2023-11-04T00:32:16.685Z,20.61
2023-11-04T00:34:44.897Z,20.61
2023-11-04T00:37:13.050Z,20.60
2023-11-04T00:39:41.309Z,20.60
2023-11-04T00:42:09.939Z,20.59
2023-11-04T00:44:38.085Z,20.59
2023-11-04T00:47:06.451Z,20.59
2023-11-04T00:49:35.055Z,20.58
2023-11-04T00:52:03.279Z,20.58
2023-11-04T00:54:31.468Z,20.58
2023-11-04T00:56:59.744Z,20.58
2023-11-04T00:59:27.888Z,20.58
2023-11-04T01:01:56.014Z,20.58
2023-11-04T01:04:24.290Z,20.59
2023-11-04T01:06:52.597Z,20.59
2023-11-04T01:09:20.854Z,20.59
2023-11-04T01:11:50.589Z,20.60
2023-11-04T01:14:18.855Z,20.60
2023-11-04T01:16:46.988Z,20.60
2023-11-04T01:19:15.157Z,20.60
2023-11-04T01:21:43.415Z,20.60
2023-11-04T01:24:11.968Z,20.60
2023-11-04T01:26:40.441Z,20.60
2023-11-04T01:29:11.808Z,20.60
2023-11-04T01:31:39.954Z,20.59
2023-11-04T01:34:08.321Z,20.59
2023-11-04T01:36:36.732Z,20.59
2023-11-04T01:39:05.299Z,20.58
2023-11-04T01:41:33.435Z,20.58
2023-11-04T01:44:02.280Z,20.59
2023-11-04T01:46:30.622Z,20.58
2023-11-04T01:48:59.228Z,20.58
2023-11-04T01:51:30.426Z,20.57
2023-11-04T01:53:59.811Z,20.57
2023-11-04T01:56:35.850Z,20.57
2023-11-04T01:59:04.748Z,20.57
2023-11-04T02:01:36.132Z,20.56
2023-11-04T02:04:04.812Z,20.56
2023-11-04T02:06:33.230Z,20.56
2023-11-04T02:09:01.801Z,20.56
2023-11-04T02:11:30.976Z,20.55
2023-11-04T02:13:59.283Z,20.55
2023-11-04T02:16:27.463Z,20.55
2023-11-04T02:18:56.505Z,20.54
2023-11-04T02:21:25.001Z,20.54
2023-11-04T02:23:53.447Z,20.54
2023-11-04T02:26:22.959Z,20.54
2023-11-04T02:28:51.164Z,20.53
2023-11-04T02:31:19.279Z,20.54
2023-11-04T02:33:47.540Z,20.53
2023-11-04T02:36:16.148Z,20.54
2023-11-04T02:38:44.307Z,20.54
2023-11-04T02:41:12.510Z,20.55
2023-11-04T02:43:40.765Z,20.55
2023-11-04T02:46:08.926Z,20.55
2023-11-04T02:48:37.191Z,20.56
2023-11-04T02:51:06.131Z,20.56
2023-11-04T02:53:34.338Z,20.56
2023-11-04T02:56:02.479Z,20.56
2023-11-04T02:58:30.620Z,20.55
2023-11-04T03:01:01.136Z,20.55
2023-11-04T03:03:29.857Z,20.55
2023-11-04T03:05:58.738Z,20.55
2023-11-04T03:08:27.509Z,20.55
2023-11-04T03:10:55.787Z,20.54
2023-11-04T03:13:23.955Z,20.54
2023-11-04T03:15:52.323Z,20.53
2023-11-04T03:18:20.778Z,20.53
2023-11-04T03:20:49.111Z,20.53
2023-11-04T03:23:17.245Z,20.52
2023-11-04T03:25:45.496Z,20.52
2023-11-04T03:28:13.658Z,20.52
2023-11-04T03:30:41.815Z,20.51
2023-11-04T03:33:11.338Z,20.50
2023-11-04T03:35:39.641Z,20.50
2023-11-04T03:38:08.598Z,20.50
2023-11-04T03:40:36.780Z,20.49
2023-11-04T03:43:04.926Z,20.49
2023-11-04T03:45:33.054Z,20.49
2023-11-04T03:48:01.441Z,20.48
2023-11-04T03:50:29.842Z,20.48
2023-11-04T03:52:58.103Z,20.48
2023-11-04T03:55:26.719Z,20.47
2023-11-04T03:57:54.964Z,20.47
2023-11-04T04:00:23.140Z,20.47
2023-11-04T04:02:52.414Z,20.47
2023-11-04T04:05:21.097Z,20.46
2023-11-04T04:07:50.776Z,20.47
2023-11-04T04:10:19.256Z,20.47
2023-11-04T04:12:49.254Z,20.47
2023-11-04T04:15:17.540Z,20.47
2023-11-04T04:17:45.820Z,20.48
2023-11-04T04:20:15.581Z,20.48
2023-11-04T04:22:43.752Z,20.48
2023-11-04T04:25:11.900Z,20.48
2023-11-04T04:27:40.085Z,20.48
2023-11-04T04:30:09.473Z,20.48
2023-11-04T04:32:37.833Z,20.48
2023-11-04T04:35:06.414Z,20.48
2023-11-04T04:37:36.032Z,20.48
2023-11-04T04:40:06.448Z,20.47
2023-11-04T04:42:34.652Z,20.47
2023-11-04T04:45:03.434Z,20.47
2023-11-04T04:47:31.700Z,20.46
2023-11-04T04:49:59.945Z,20.45
2023-11-04T04:52:28.123Z,20.45
2023-11-04T04:54:56.273Z,20.45
2023-11-04T04:57:24.508Z,20.44
2023-11-04T04:59:53.052Z,20.43
2023-11-04T05:02:21.324Z,20.43
2023-11-04T05:04:49.596Z,20.43
2023-11-04T05:07:17.767Z,20.42
2023-11-04T05:09:46.027Z,20.42
2023-11-04T05:12:14.187Z,20.42
2023-11-04T05:14:42.356Z,20.42
2023-11-04T05:17:11.132Z,20.42
2023-11-04T05:19:39.253Z,20.41
2023-11-04T05:22:08.163Z,20.41
2023-11-04T05:24:37.116Z,20.41
2023-11-04T05:27:05.470Z,20.41
2023-11-04T05:29:34.014Z,20.40
2023-11-04T05:32:02.130Z,20.40
2023-11-04T05:34:30.301Z,20.40
2023-11-04T05:36:58.523Z,20.40
2023-11-04T05:39:27.280Z,20.40
2023-11-04T05:41:55.470Z,20.39
2023-11-04T05:44:23.625Z,20.40
2023-11-04T05:46:51.744Z,20.40
2023-11-04T05:49:19.970Z,20.41
2023-11-04T05:51:48.364Z,20.41
2023-11-04T05:54:17.332Z,20.42
2023-11-04T05:56:45.557Z,20.42
2023-11-04T05:59:13.782Z,20.43
2023-11-04T06:01:41.909Z,20.42
2023-11-04T06:04:11.606Z,20.42
2023-11-04T06:06:39.994Z,20.43
2023-11-04T06:09:09.225Z,20.43
2023-11-04T06:11:37.474Z,20.42
2023-11-04T06:14:05.703Z,20.43
2023-11-04T06:16:35.386Z,20.42
2023-11-04T06:19:03.695Z,20.42
2023-11-04T06:21:31.908Z,20.42
2023-11-04T06:24:00.082Z,20.43
2023-11-04T06:26:28.256Z,20.43
2023-11-04T06:28:56.365Z,20.42
2023-11-04T06:31:24.587Z,20.42
2023-11-04T06:33:52.928Z,20.42
2023-11-04T06:36:21.495Z,20.41
2023-11-04T06:38:49.722Z,20.42
2023-11-04T06:41:21.377Z,20.42
2023-11-04T06:43:51.030Z,20.42
2023-11-04T06:46:19.454Z,20.41
2023-11-04T06:48:48.646Z,20.41
2023-11-04T06:51:20.843Z,20.41
2023-11-04T06:53:50.182Z,20.41
2023-11-04T06:56:18.402Z,20.40
2023-11-04T06:58:46.554Z,20.41
2023-11-04T07:01:16.311Z,20.40
2023-11-04T07:03:48.723Z,20.40
2023-11-04T07:06:19.048Z,20.40
2023-11-04T07:08:47.930Z,20.40
2023-11-04T07:11:18.181Z,20.40
2023-11-04T07:13:46.874Z,20.40
2023-11-04T07:16:16.125Z,20.41
2023-11-04T07:18:44.996Z,20.42
2023-11-04T07:21:13.615Z,20.42
2023-11-04T07:23:42.877Z,20.43
2023-11-04T07:26:11.102Z,20.43
2023-11-04T07:28:39.565Z,20.44
2023-11-04T07:31:08.501Z,20.45
2023-11-04T07:33:38.016Z,20.45
2023-11-04T07:36:07.086Z,20.46
2023-11-04T07:38:35.285Z,20.46
2023-11-04T07:41:03.907Z,20.46
2023-11-04T07:43:33.734Z,20.47
2023-11-04T07:46:02.885Z,20.47
2023-11-04T07:48:31.372Z,20.48
2023-11-04T07:51:00.501Z,20.48
2023-11-04T07:53:29.393Z,20.48
2023-11-04T07:55:57.577Z,20.49
2023-11-04T07:58:25.773Z,20.49
2023-11-04T08:00:55.400Z,20.49
2023-11-04T08:03:24.792Z,20.49
2023-11-04T08:05:54.783Z,20.49
2023-11-04T08:08:23.604Z,20.50
2023-11-04T08:10:51.919Z,20.50
2023-11-04T08:13:21.443Z,20.50
2023-11-04T08:15:49.632Z,20.50
2023-11-04T08:18:18.182Z,20.50
2023-11-04T08:20:46.465Z,20.50
2023-11-04T08:23:14.687Z,20.50
2023-11-04T08:25:42.916Z,20.50
2023-11-04T08:28:11.157Z,20.49
2023-11-04T08:30:39.981Z,20.50
2023-11-04T08:33:08.413Z,20.50
2023-11-04T08:35:36.658Z,20.50
2023-11-04T08:38:05.016Z,20.51
2023-11-04T08:40:33.330Z,20.51
2023-11-04T08:43:01.571Z,20.51
2023-11-04T08:45:29.811Z,20.52
2023-11-04T08:47:58.109Z,20.54
2023-11-04T08:50:28.744Z,20.56
2023-11-04T08:52:56.952Z,20.58
2023-11-04T08:55:25.124Z,20.59
2023-11-04T08:57:53.341Z,20.61
2023-11-04T09:00:21.614Z,20.62
2023-11-04T09:02:50.830Z,20.65
2023-11-04T09:05:25.306Z,20.67
2023-11-04T09:07:59.380Z,20.70
2023-11-04T09:10:27.538Z,20.72
2023-11-04T09:12:56.537Z,20.75
2023-11-04T09:15:24.936Z,20.78
2023-11-04T09:17:53.224Z,20.81
2023-11-04T09:20:21.957Z,20.83
2023-11-04T09:22:50.236Z,20.85
2023-11-04T09:25:18.805Z,20.88
2023-11-04T09:27:47.061Z,20.91
2023-11-04T09:30:18.288Z,20.94
2023-11-04T09:32:46.515Z,20.96
2023-11-04T09:35:14.921Z,20.98
2023-11-04T09:37:44.288Z,21.01
2023-11-04T09:40:13.894Z,21.02
2023-11-04T09:42:45.965Z,21.04
2023-11-04T09:45:17.128Z,21.05
2023-11-04T09:47:45.363Z,21.06
2023-11-04T09:50:14.004Z,21.07
2023-11-04T09:52:46.891Z,21.07
2023-11-04T09:55:16.835Z,21.08
2023-11-04T09:57:46.338Z,21.07
2023-11-04T10:00:18.091Z,21.08
2023-11-04T10:02:46.647Z,21.07
2023-11-04T10:05:15.468Z,21.08
2023-11-04T10:07:44.857Z,21.07
2023-11-04T10:10:22.350Z,21.06
2023-11-04T10:12:57.978Z,21.05
2023-11-04T10:15:26.852Z,21.05
2023-11-04T10:17:55.990Z,21.04
2023-11-04T10:20:24.892Z,21.04
2023-11-04T10:22:53.103Z,21.03
2023-11-04T10:25:22.196Z,21.03
2023-11-04T10:27:50.386Z,21.03
2023-11-04T10:30:18.682Z,21.03
2023-11-04T10:32:50.475Z,21.02
2023-11-04T10:35:19.874Z,21.02
2023-11-04T10:37:52.280Z,21.02
2023-11-04T10:40:22.444Z,21.01
2023-11-04T10:43:15.955Z,21.00
2023-11-04T10:45:50.298Z,21.00
2023-11-04T10:48:27.402Z,20.99
2023-11-04T10:51:04.550Z,20.99
2023-11-04T10:53:48.123Z,20.98
2023-11-04T10:56:32.885Z,20.98
2023-11-04T10:59:19.730Z,20.97
2023-11-04T11:01:48.683Z,20.96
2023-11-04T11:04:19.015Z,20.95
2023-11-04T11:06:48.639Z,20.94
2023-11-04T11:09:20.467Z,20.93
2023-11-04T11:12:06.374Z,20.92
2023-11-04T11:14:38.268Z,20.91
2023-11-04T11:17:09.872Z,20.89
2023-11-04T11:19:52.882Z,20.87
2023-11-04T11:22:26.012Z,20.86
2023-11-04T11:24:59.193Z,20.84
2023-11-04T11:27:27.529Z,20.82
2023-11-04T11:29:57.983Z,20.82
2023-11-04T11:32:36.255Z,20.80
2023-11-04T11:35:09.025Z,20.79
2023-11-04T11:37:38.117Z,20.78
2023-11-04T11:40:14.798Z,20.78
2023-11-04T11:42:43.249Z,20.77
2023-11-04T11:45:11.556Z,20.75
2023-11-04T11:47:40.658Z,20.74
2023-11-04T11:50:09.274Z,20.72
2023-11-04T11:52:37.466Z,20.72
2023-11-04T11:55:09.451Z,20.72
2023-11-04T11:57:37.823Z,20.72
2023-11-04T12:00:07.220Z,20.71
2023-11-04T12:02:41.614Z,20.71
2023-11-04T12:05:11.029Z,20.71
2023-11-04T12:07:40.658Z,20.70
2023-11-04T12:10:10.104Z,20.71
2023-11-04T12:12:39.375Z,20.70
2023-11-04T12:15:12.441Z,20.69
2023-11-04T12:17:41.966Z,20.68
2023-11-04T12:20:18.202Z,20.68
2023-11-04T12:22:46.465Z,20.67
2023-11-04T12:25:16.233Z,20.67
2023-11-04T12:27:46.963Z,20.67
2023-11-04T12:30:19.469Z,20.67
2023-11-04T12:32:59.766Z,20.66
2023-11-04T12:35:27.981Z,20.65
2023-11-04T12:37:57.333Z,20.65
2023-11-04T12:40:32.163Z,20.65
2023-11-04T12:43:04.666Z,20.65
2023-11-04T12:45:34.276Z,20.65
2023-11-04T12:48:03.212Z,20.64
2023-11-04T12:50:32.332Z,20.64
2023-11-04T12:53:04.609Z,20.64
2023-11-04T12:55:32.740Z,20.63
2023-11-04T12:58:01.832Z,20.63
2023-11-04T13:00:31.168Z,20.62
2023-11-04T13:03:01.240Z,20.61
2023-11-04T13:05:29.576Z,20.60
2023-11-04T13:07:58.391Z,20.60
2023-11-04T13:10:27.091Z,20.60
2023-11-04T13:12:55.708Z,20.59
2023-11-04T13:15:24.432Z,20.58
2023-11-04T13:17:52.624Z,20.58
2023-11-04T13:20:21.285Z,20.57
2023-11-04T13:22:49.721Z,20.56
2023-11-04T13:25:17.927Z,20.56
2023-11-04T13:27:46.457Z,20.55
2023-11-04T13:34:39.435Z,20.57
2023-11-04T13:37:07.711Z,20.55
2023-11-04T13:39:35.938Z,20.55
2023-11-04T13:42:04.241Z,20.55
2023-11-04T13:44:32.388Z,20.56
2023-11-04T13:47:00.895Z,20.56
2023-11-04T13:49:29.209Z,20.55
2023-11-04T13:51:58.006Z,20.56
2023-11-04T13:54:26.173Z,20.55
2023-11-04T13:56:57.810Z,20.55
2023-11-04T13:59:25.993Z,20.54
2023-11-04T14:01:54.637Z,20.54
2023-11-04T14:04:23.023Z,20.53
2023-11-04T14:06:51.390Z,20.53
2023-11-04T14:09:19.609Z,20.53
2023-11-04T14:11:47.823Z,20.52
2023-11-04T14:14:15.993Z,20.52
2023-11-04T14:16:44.913Z,20.51
2023-11-04T14:19:13.164Z,20.50
2023-11-04T14:21:41.689Z,20.50
2023-11-04T14:24:10.270Z,20.49
2023-11-04T14:26:41.097Z,20.49
2023-11-04T14:29:09.600Z,20.48
2023-11-04T14:31:37.757Z,20.48
2023-11-04T14:34:06.040Z,20.47
2023-11-04T14:36:34.171Z,20.47
2023-11-04T14:39:04.830Z,20.46
2023-11-04T14:41:34.137Z,20.46
2023-11-04T14:44:03.958Z,20.45
2023-11-04T14:46:32.107Z,20.45
2023-11-04T14:49:02.552Z,20.44
2023-11-04T14:51:30.829Z,20.43
2023-11-04T14:53:59.046Z,20.43
2023-11-04T14:56:27.227Z,20.42
2023-11-04T14:58:55.355Z,20.42
2023-11-04T15:01:23.500Z,20.42
2023-11-04T15:03:51.691Z,20.42
2023-11-04T15:06:20.202Z,20.41
2023-11-04T15:08:50.270Z,20.41
2023-11-04T15:11:20.235Z,20.41
2023-11-04T15:13:48.625Z,20.42
2023-11-04T15:16:16.816Z,20.41
2023-11-04T15:18:45.113Z,20.42
2023-11-04T15:21:14.610Z,20.42
2023-11-04T15:23:43.341Z,20.42
2023-11-04T15:26:11.658Z,20.42
2023-11-04T15:28:39.913Z,20.42
2023-11-04T15:31:08.325Z,20.41
2023-11-04T15:33:36.572Z,20.40
2023-11-04T15:36:05.470Z,20.40
2023-11-04T15:38:34.519Z,20.39
2023-11-04T15:41:02.787Z,20.39
2023-11-04T15:43:30.939Z,20.38
2023-11-04T15:45:59.111Z,20.38
2023-11-04T15:48:27.872Z,20.38
2023-11-04T15:50:56.345Z,20.37
2023-11-04T15:53:24.588Z,20.37
2023-11-04T15:55:55.634Z,20.36
2023-11-04T15:58:28.161Z,20.36
2023-11-04T16:00:58.122Z,20.35
2023-11-04T16:03:26.360Z,20.35
2023-11-04T16:05:55.313Z,20.35
2023-11-04T16:08:23.926Z,20.34
2023-11-04T16:10:52.152Z,20.33
2023-11-04T16:13:21.054Z,20.33
2023-11-04T16:15:49.368Z,20.33
2023-11-04T16:18:17.615Z,20.32
2023-11-04T16:20:45.847Z,20.32
2023-11-04T16:23:14.280Z,20.32
2023-11-04T16:25:42.530Z,20.31
2023-11-04T16:28:11.371Z,20.31
2023-11-04T16:30:39.684Z,20.31
2023-11-04T16:33:07.979Z,20.30
2023-11-04T16:35:36.195Z,20.30
2023-11-04T16:38:07.408Z,20.30
2023-11-04T16:40:35.917Z,20.30
2023-11-04T16:43:04.431Z,20.30
2023-11-04T16:45:32.934Z,20.30
2023-11-04T16:48:01.218Z,20.30
2023-11-04T16:50:31.765Z,20.31
2023-11-04T16:53:00.532Z,20.31
2023-11-04T16:55:28.727Z,20.31
2023-11-04T16:57:56.922Z,20.32
2023-11-04T17:00:25.237Z,20.32
2023-11-04T17:02:53.491Z,20.32
2023-11-04T17:05:21.831Z,20.32
2023-11-04T17:07:50.111Z,20.32
2023-11-04T17:10:18.513Z,20.32
2023-11-04T17:12:46.773Z,20.31
2023-11-04T17:15:16.407Z,20.31
2023-11-04T17:17:44.611Z,20.32
2023-11-04T17:20:12.827Z,20.31
2023-11-04T17:22:41.041Z,20.31
2023-11-04T17:25:09.584Z,20.30
2023-11-04T17:27:38.796Z,20.30
2023-11-04T17:30:07.543Z,20.30
2023-11-04T17:32:36.049Z,20.30
2023-11-04T17:35:07.308Z,20.29
2023-11-04T17:37:37.079Z,20.29
2023-11-04T17:40:06.054Z,20.29
2023-11-04T17:42:36.828Z,20.29
2023-11-04T17:45:05.583Z,20.28
2023-11-04T17:47:33.912Z,20.28
2023-11-04T17:50:02.889Z,20.27
2023-11-04T17:52:31.065Z,20.27
2023-11-04T17:54:59.262Z,20.26
2023-11-04T17:57:27.461Z,20.26
2023-11-04T17:59:56.688Z,20.26
2023-11-04T18:02:25.014Z,20.26
2023-11-04T18:04:54.101Z,20.25
2023-11-04T18:07:24.447Z,20.25
2023-11-04T18:09:52.880Z,20.25
2023-11-04T18:12:21.031Z,20.25
2023-11-04T18:14:49.198Z,20.25
2023-11-04T18:17:17.392Z,20.25
2023-11-04T18:19:45.747Z,20.25
2023-11-04T18:22:14.102Z,20.26
2023-11-04T18:24:42.344Z,20.26
2023-11-04T18:27:10.594Z,20.27
2023-11-04T18:29:39.003Z,20.27
2023-11-04T18:32:07.955Z,20.27
2023-11-04T18:34:36.418Z,20.28
2023-11-04T18:37:04.666Z,20.28
2023-11-04T18:39:33.712Z,20.28
2023-11-04T18:42:03.055Z,20.28
2023-11-04T18:44:31.840Z,20.27
2023-11-04T18:47:00.131Z,20.27
2023-11-04T18:49:28.362Z,20.27
2023-11-04T18:51:57.285Z,20.27
2023-11-04T18:54:25.494Z,20.26
2023-11-04T18:56:53.620Z,20.26
2023-11-04T18:59:21.786Z,20.26
2023-11-04T19:01:51.715Z,20.26
2023-11-04T19:04:20.029Z,20.26
2023-11-04T19:06:48.282Z,20.25
2023-11-04T19:09:17.158Z,20.25
2023-11-04T19:11:46.246Z,20.25
2023-11-04T19:14:14.460Z,20.24
2023-11-04T19:16:43.109Z,20.24
2023-11-04T19:19:11.320Z,20.24
2023-11-04T19:21:40.677Z,20.24
2023-11-04T19:24:09.015Z,20.24
2023-11-04T19:26:37.340Z,20.23
2023-11-04T19:29:05.683Z,20.23
2023-11-04T19:31:33.877Z,20.23
2023-11-04T19:34:02.201Z,20.22
2023-11-04T19:36:30.420Z,20.23
2023-11-04T19:38:59.022Z,20.22
2023-11-04T19:41:27.132Z,20.22
2023-11-04T19:43:55.280Z,20.21
2023-11-04T19:46:25.841Z,20.21
2023-11-04T19:48:55.760Z,20.21
2023-11-04T19:51:24.013Z,20.21
2023-11-04T19:53:52.165Z,20.21
2023-11-04T19:56:20.306Z,20.22
2023-11-04T19:58:48.451Z,20.22
2023-11-04T20:01:16.719Z,20.22
2023-11-04T20:03:44.959Z,20.22
2023-11-04T20:06:13.321Z,20.23
2023-11-04T20:08:42.341Z,20.23
2023-11-04T20:11:10.558Z,20.23
2023-11-04T20:13:38.674Z,20.23
2023-11-04T20:16:07.561Z,20.23
2023-11-04T20:18:35.803Z,20.23
2023-11-04T20:21:04.644Z,20.22
2023-11-04T20:23:32.844Z,20.22
2023-11-04T20:26:00.991Z,20.22
2023-11-04T20:28:29.452Z,20.22
2023-11-04T20:30:57.837Z,20.22
2023-11-04T20:33:26.139Z,20.21
2023-11-04T20:35:56.036Z,20.21
2023-11-04T20:38:25.079Z,20.20
2023-11-04T20:40:53.277Z,20.20
2023-11-04T20:43:23.087Z,20.20
2023-11-04T20:45:51.313Z,20.19
2023-11-04T20:48:19.539Z,20.19
2023-11-04T20:50:47.732Z,20.18
2023-11-04T20:53:15.914Z,20.18
2023-11-04T20:55:44.156Z,20.17
2023-11-04T20:58:12.498Z,20.17
2023-11-04T21:00:41.447Z,20.17
2023-11-04T21:03:09.585Z,20.16
2023-11-04T21:05:39.939Z,20.15
2023-11-04T21:08:08.653Z,20.16
2023-11-04T21:10:36.913Z,20.15
2023-11-04T21:13:05.378Z,20.15
2023-11-04T21:15:33.537Z,20.15
2023-11-04T21:18:02.817Z,20.14
2023-11-04T21:20:31.188Z,20.14
2023-11-04T21:22:59.434Z,20.14
2023-11-04T21:25:27.688Z,20.14
2023-11-04T21:27:56.326Z,20.14
2023-11-04T21:30:24.701Z,20.14
2023-11-04T21:32:52.894Z,20.15
2023-11-04T21:35:21.111Z,20.15
2023-11-04T21:37:49.250Z,20.16
2023-11-04T21:40:17.601Z,20.16
2023-11-04T21:42:45.921Z,20.16
2023-11-04T21:45:16.119Z,20.17
2023-11-04T21:47:45.846Z,20.16
2023-11-04T21:50:14.242Z,20.16
2023-11-04T21:52:42.465Z,20.16
2023-11-04T21:55:10.752Z,20.16
2023-11-04T21:57:38.914Z,20.16
2023-11-04T22:00:07.678Z,20.16
2023-11-04T22:02:35.897Z,20.16
2023-11-04T22:05:04.376Z,20.16
2023-11-04T22:07:32.831Z,20.16
2023-11-04T22:10:01.590Z,20.16
2023-11-04T22:12:29.824Z,20.15
2023-11-04T22:14:57.983Z,20.15
2023-11-04T22:17:26.862Z,20.15
2023-11-04T22:19:55.223Z,20.14
2023-11-04T22:22:24.028Z,20.14
2023-11-04T22:24:52.201Z,20.13
2023-11-04T22:27:20.330Z,20.13
2023-11-04T22:29:48.453Z,20.13
2023-11-04T22:32:16.661Z,20.13
2023-11-04T22:34:44.937Z,20.12
2023-11-04T22:37:13.382Z,20.12
2023-11-04T22:39:41.619Z,20.11
2023-11-04T22:42:09.815Z,20.11
2023-11-04T22:44:38.026Z,20.10
2023-11-04T22:47:06.510Z,20.10
2023-11-04T22:49:34.750Z,20.09
2023-11-04T22:52:02.975Z,20.09
2023-11-04T22:54:31.250Z,20.08
2023-11-04T22:56:59.438Z,20.09
2023-11-04T22:59:27.709Z,20.08
2023-11-04T23:01:55.856Z,20.08
2023-11-04T23:04:26.037Z,20.08
2023-11-04T23:06:54.629Z,20.08
2023-11-04T23:09:22.840Z,20.09
2023-11-04T23:11:51.144Z,20.09
2023-11-04T23:14:19.549Z,20.10
2023-11-04T23:16:47.687Z,20.10
2023-11-04T23:19:15.903Z,20.11
2023-11-04T23:21:44.067Z,20.11
2023-11-04T23:24:12.246Z,20.11
2023-11-04T23:26:41.179Z,20.11
2023-11-04T23:29:09.591Z,20.12
2023-11-04T23:31:37.720Z,20.11
2023-11-04T23:34:06.897Z,20.10
2023-11-04T23:36:35.193Z,20.10
2023-11-04T23:39:03.391Z,20.10
2023-11-04T23:41:31.608Z,20.10
2023-11-04T23:43:59.759Z,20.10
2023-11-04T23:46:27.971Z,20.10
2023-11-04T23:48:56.209Z,20.09
2023-11-04T23:51:24.420Z,20.09
2023-11-04T23:53:52.597Z,20.08
2023-11-04T23:56:20.778Z,20.07
2023-11-04T23:58:50.055Z,20.07
